createdAt,value
2022-08-10T00:00:43.036Z,6.60
2022-08-10T00:04:21.174Z,6.00
2022-08-10T00:07:50.487Z,6.40
2022-08-10T00:11:15.470Z,6.70
2022-08-10T00:14:45.530Z,6.50
2022-08-10T00:18:35.040Z,6.10
2022-08-10T00:22:02.649Z,6.70
2022-08-10T00:25:14.523Z,6.90
2022-08-10T00:28:43.010Z,6.40
2022-08-10T00:32:11.773Z,7.10
2022-08-10T00:39:39.523Z,6.90
2022-08-10T00:43:08.125Z,6.60
2022-08-10T00:46:36.626Z,6.90
2022-08-10T00:50:09.184Z,6.30
2022-08-10T00:53:28.508Z,7.40
2022-08-10T00:57:18.029Z,7.60
2022-08-10T01:00:45.895Z,6.80
2022-08-10T01:04:54.598Z,7.00
2022-08-10T01:08:07.599Z,6.70
2022-08-10T01:12:39.223Z,6.80
2022-08-10T01:15:31.340Z,7.00
2022-08-10T01:19:05.048Z,6.90
2022-08-10T01:22:29.373Z,7.20
2022-08-10T01:26:30.963Z,6.90
2022-08-10T01:30:24.904Z,6.50
2022-08-10T01:35:54.351Z,7.40
2022-08-10T01:38:29.847Z,7.60
2022-08-10T01:41:08.874Z,7.30
2022-08-10T01:43:43.325Z,7.50
2022-08-10T01:46:14.124Z,7.50
2022-08-10T01:48:51.517Z,7.00
2022-08-10T01:51:25.871Z,7.10
2022-08-10T01:54:02.921Z,6.50
2022-08-10T01:56:38.158Z,8.20
2022-08-10T01:59:14.315Z,8.00
2022-08-10T02:01:48.684Z,7.00
2022-08-10T02:04:18.579Z,7.50
2022-08-10T02:06:51.195Z,7.80
2022-08-10T02:09:24.002Z,7.80
2022-08-10T02:12:05.899Z,7.60
2022-08-10T02:14:42.768Z,7.30
2022-08-10T02:17:59.093Z,7.70
2022-08-10T02:20:07.792Z,7.40
2022-08-10T02:22:46.093Z,6.90
2022-08-10T02:25:41.506Z,7.40
2022-08-10T02:28:06.629Z,7.30
2022-08-10T02:30:35.342Z,7.80
2022-08-10T02:33:05.835Z,8.00
2022-08-10T02:35:54.460Z,8.00
2022-08-10T02:38:59.531Z,7.60
2022-08-10T02:45:12.728Z,8.30
2022-08-10T02:45:18.088Z,8.10
2022-08-10T02:47:28.550Z,7.50
2022-08-10T02:50:08.580Z,8.20
2022-08-10T02:52:44.766Z,7.60
2022-08-10T02:55:27.106Z,7.40
2022-08-10T02:58:15.369Z,8.40
2022-08-10T03:00:54.339Z,8.10
2022-08-10T03:03:33.298Z,8.40
2022-08-10T03:06:05.674Z,8.20
2022-08-10T03:08:39.557Z,7.50
2022-08-10T03:11:10.286Z,7.30
2022-08-10T03:13:39.770Z,7.40
2022-08-10T03:16:10.117Z,7.80
2022-08-10T03:18:39.225Z,8.50
2022-08-10T03:21:11.948Z,8.40
2022-08-10T03:23:42.203Z,7.70
2022-08-10T03:26:12.101Z,8.40
2022-08-10T03:28:40.651Z,8.20
2022-08-10T03:31:09.272Z,8.10
2022-08-10T03:33:40.142Z,8.50
2022-08-10T03:36:42.878Z,8.50
2022-08-10T03:38:56.835Z,8.50
2022-08-10T03:41:35.514Z,8.60
2022-08-10T03:44:06.382Z,9.00
2022-08-10T03:46:37.635Z,8.70
2022-08-10T03:49:07.170Z,9.50
2022-08-10T03:51:36.234Z,8.80
2022-08-10T03:54:07.192Z,8.20
2022-08-10T03:56:38.093Z,8.80
2022-08-10T03:59:09.241Z,8.10
2022-08-10T04:02:45.829Z,8.60
2022-08-10T04:04:26.863Z,8.90
2022-08-10T04:06:57.828Z,9.20
2022-08-10T04:09:43.469Z,8.50
2022-08-10T04:12:16.392Z,9.10
2022-08-10T04:14:51.274Z,9.30
2022-08-10T04:18:01.451Z,9.00
2022-08-10T04:20:34.580Z,9.00
2022-08-10T04:23:08.985Z,8.70
2022-08-10T04:25:40.334Z,8.30
2022-08-10T04:28:09.348Z,8.40
2022-08-10T04:30:38.505Z,8.60
2022-08-10T04:33:10.992Z,8.80
2022-08-10T04:35:39.572Z,8.20
2022-08-10T04:38:08.703Z,8.30
2022-08-10T04:40:37.866Z,8.60
2022-08-10T04:43:12.677Z,8.50
2022-08-10T04:45:49.716Z,9.10
2022-08-10T04:48:40.008Z,9.40
2022-08-10T04:51:17.882Z,10.60
2022-08-10T04:54:05.578Z,9.50
2022-08-10T04:56:39.827Z,9.40
2022-08-10T04:59:09.758Z,8.40
2022-08-10T05:02:28.041Z,8.70
2022-08-10T05:04:35.707Z,8.90
2022-08-10T05:07:15.846Z,8.50
2022-08-10T05:10:03.081Z,8.20
2022-08-10T05:12:37.622Z,8.60
2022-08-10T05:15:10.852Z,8.40
2022-08-10T05:17:41.379Z,8.20
2022-08-10T05:20:29.522Z,8.10
2022-08-10T05:22:57.452Z,8.00
2022-08-10T05:25:25.224Z,8.90
2022-08-10T05:27:55.500Z,9.00
2022-08-10T05:30:25.160Z,9.10
2022-08-10T05:32:57.354Z,8.10
2022-08-10T05:35:39.074Z,9.10
2022-08-10T05:38:19.394Z,9.00
2022-08-10T05:40:49.520Z,9.90
2022-08-10T05:43:19.733Z,10.30
2022-08-10T05:46:17.899Z,9.30
2022-08-10T05:48:56.086Z,9.20
2022-08-10T05:51:27.688Z,8.20
2022-08-10T05:54:02.075Z,9.20
2022-08-10T05:56:53.703Z,8.70
2022-08-10T06:00:33.383Z,7.90
2022-08-10T06:05:10.968Z,7.00
2022-08-10T06:08:04.951Z,6.90
2022-08-10T06:10:35.939Z,7.50
2022-08-10T06:14:13.172Z,8.00
2022-08-10T06:16:33.113Z,7.60
2022-08-10T06:19:03.441Z,7.20
2022-08-10T06:21:33.343Z,7.20
2022-08-10T06:24:03.097Z,6.30
2022-08-10T06:26:31.168Z,7.40
2022-08-10T06:29:07.262Z,6.90
2022-08-10T06:31:48.237Z,7.60
2022-08-10T06:34:26.051Z,7.20
2022-08-10T06:36:57.860Z,6.50
2022-08-10T06:39:35.483Z,6.00
2022-08-10T06:42:18.042Z,6.20
2022-08-10T06:44:58.348Z,5.80
2022-08-10T06:47:59.464Z,5.90
2022-08-10T06:50:56.184Z,5.20
2022-08-10T06:53:52.364Z,5.00
2022-08-10T06:56:36.464Z,5.60
2022-08-10T06:59:14.557Z,5.60
2022-08-10T07:02:02.695Z,4.50
2022-08-10T07:04:35.921Z,4.60
2022-08-10T07:07:06.528Z,4.70
2022-08-10T07:09:40.285Z,4.40
2022-08-10T07:12:09.715Z,4.30
2022-08-10T07:14:41.009Z,4.30
2022-08-10T07:17:20.114Z,3.50
2022-08-10T07:19:52.759Z,3.50
2022-08-10T07:23:26.910Z,3.50
2022-08-10T07:25:19.771Z,3.10
2022-08-10T07:27:58.553Z,3.20
2022-08-10T07:30:30.176Z,3.30
2022-08-10T07:33:00.673Z,3.10
2022-08-10T07:35:36.810Z,3.00
2022-08-10T07:38:21.874Z,3.40
2022-08-10T07:40:51.918Z,2.80
2022-08-10T07:43:24.127Z,2.20
2022-08-10T07:45:52.956Z,2.20
2022-08-10T07:48:26.621Z,2.20
2022-08-10T07:50:59.556Z,2.50
2022-08-10T07:53:32.769Z,2.30
2022-08-10T07:56:16.587Z,2.30
2022-08-10T07:58:57.358Z,2.50
2022-08-10T08:01:29.377Z,2.40
2022-08-10T08:04:05.303Z,2.30
2022-08-10T08:06:41.470Z,2.30
2022-08-10T08:09:11.269Z,2.30
2022-08-10T08:11:43.562Z,2.20
2022-08-10T08:14:13.327Z,2.20
2022-08-10T08:16:45.834Z,1.90
2022-08-10T08:19:35.849Z,1.90
2022-08-10T08:24:08.725Z,2.00
2022-08-10T08:24:55.418Z,1.60
2022-08-10T08:27:24.406Z,1.90
2022-08-10T08:29:53.303Z,2.00
2022-08-10T08:32:24.254Z,2.10
2022-08-10T08:34:58.837Z,2.10
2022-08-10T08:38:33.407Z,1.80
2022-08-10T08:40:28.146Z,2.60
2022-08-10T08:43:14.841Z,2.00
2022-08-10T08:46:28.627Z,2.10
2022-08-10T08:50:08.088Z,2.10
2022-08-10T08:52:39.889Z,2.10
2022-08-10T08:56:03.520Z,1.70
2022-08-10T08:58:34.906Z,1.90
2022-08-10T09:01:21.513Z,2.10
2022-08-10T09:04:04.648Z,2.20
2022-08-10T09:06:53.084Z,2.00
2022-08-10T09:09:33.750Z,2.30
2022-08-10T09:12:22.629Z,2.40
2022-08-10T09:14:50.389Z,2.00
2022-08-10T09:17:35.440Z,2.00
2022-08-10T09:20:10.038Z,1.90
2022-08-10T09:23:03.732Z,2.10
2022-08-10T09:25:48.732Z,2.10
2022-08-10T09:28:40.618Z,2.20
2022-08-10T09:31:22.368Z,1.70
2022-08-10T09:36:22.961Z,1.80
2022-08-10T09:37:14.470Z,1.70
2022-08-10T09:40:56.913Z,1.60
2022-08-10T09:43:21.977Z,1.80
2022-08-10T09:46:21.800Z,1.70
2022-08-10T09:49:11.884Z,1.50
2022-08-10T09:54:44.889Z,1.40
2022-08-10T09:57:44.379Z,1.80
2022-08-10T10:00:30.835Z,1.50
2022-08-10T10:03:24.097Z,1.70
2022-08-10T10:06:13.553Z,1.60
2022-08-10T10:09:10.073Z,1.70
2022-08-10T10:12:12.361Z,1.50
2022-08-10T10:15:25.096Z,1.80
2022-08-10T10:18:12.065Z,1.80
2022-08-10T10:21:09.538Z,1.40
2022-08-10T10:23:55.315Z,1.30
2022-08-10T10:26:50.182Z,1.80
2022-08-10T10:29:57.290Z,1.50
2022-08-10T10:32:58.409Z,2.20
2022-08-10T10:35:36.760Z,3.00
2022-08-10T10:38:09.339Z,1.50
2022-08-10T10:40:55.836Z,1.50
2022-08-10T10:43:39.066Z,1.70
2022-08-10T10:46:23.495Z,1.70
2022-08-10T10:49:16.257Z,1.50
2022-08-10T10:51:54.593Z,1.60
2022-08-10T10:54:40.364Z,1.50
2022-08-10T10:57:58.199Z,1.40
2022-08-10T11:00:18.589Z,1.70
2022-08-10T11:02:54.166Z,1.40
2022-08-10T11:05:38.203Z,1.50
2022-08-10T11:08:29.643Z,1.40
2022-08-10T11:12:01.236Z,1.50
2022-08-10T11:14:39.498Z,1.50
2022-08-10T11:17:58.426Z,1.20
2022-08-10T11:20:51.379Z,1.60
2022-08-10T11:23:37.099Z,1.50
2022-08-10T11:26:14.097Z,1.20
2022-08-10T11:29:16.798Z,1.20
2022-08-10T11:32:09.772Z,1.40
2022-08-10T11:35:11.995Z,1.40
2022-08-10T11:38:30.066Z,1.90
2022-08-10T11:40:43.649Z,1.50
2022-08-10T11:43:15.149Z,1.30
2022-08-10T11:45:52.519Z,1.30
2022-08-10T11:48:53.037Z,1.40
2022-08-10T11:52:10.969Z,1.50
2022-08-10T11:54:53.955Z,1.60
2022-08-10T11:57:25.992Z,1.90
2022-08-10T12:00:15.164Z,1.40
2022-08-10T12:02:50.280Z,1.50
2022-08-10T12:05:20.334Z,1.60
2022-08-10T12:10:02.306Z,1.30
2022-08-10T12:10:42.999Z,1.40
2022-08-10T12:13:22.644Z,1.20
2022-08-10T12:16:04.720Z,1.40
2022-08-10T12:18:46.314Z,1.60
2022-08-10T12:21:39.535Z,1.40
2022-08-10T12:24:20.745Z,1.30
2022-08-10T12:27:05.392Z,0.90
2022-08-10T12:29:53.795Z,1.50
2022-08-10T12:32:36.058Z,3.00
2022-08-10T12:35:19.461Z,1.30
2022-08-10T12:38:24.104Z,1.40
2022-08-10T12:41:04.081Z,1.20
2022-08-10T12:44:07.737Z,1.30
2022-08-10T12:46:59.072Z,1.20
2022-08-10T12:49:41.919Z,1.30
2022-08-10T12:52:34.402Z,1.30
2022-08-10T12:55:05.543Z,1.10
2022-08-10T12:57:37.295Z,1.20
2022-08-10T13:00:17.105Z,1.70
2022-08-10T13:02:49.162Z,1.10
2022-08-10T13:05:18.123Z,1.30
2022-08-10T13:08:25.809Z,1.60
2022-08-10T13:10:45.278Z,1.50
2022-08-10T13:13:15.754Z,1.30
2022-08-10T13:15:51.217Z,1.30
2022-08-10T13:18:26.536Z,1.20
2022-08-10T13:20:59.313Z,1.30
2022-08-10T13:23:32.021Z,1.30
2022-08-10T13:26:02.864Z,1.20
2022-08-10T13:28:56.297Z,1.20
2022-08-10T13:32:04.079Z,1.30
2022-08-10T13:34:43.004Z,1.20
2022-08-10T13:37:18.877Z,1.10
2022-08-10T13:39:57.737Z,1.20
2022-08-10T13:42:36.213Z,1.00
2022-08-10T13:45:14.773Z,1.30
2022-08-10T13:47:48.921Z,1.50
2022-08-10T13:50:33.305Z,1.20
2022-08-10T13:53:14.868Z,1.50
2022-08-10T13:55:54.351Z,1.30
2022-08-10T13:58:27.313Z,1.30
2022-08-10T14:00:58.263Z,1.30
2022-08-10T14:03:27.805Z,1.50
2022-08-10T14:05:58.397Z,1.90
2022-08-10T14:08:31.664Z,2.00
2022-08-10T14:11:11.338Z,2.20
2022-08-10T14:13:45.608Z,1.40
2022-08-10T14:16:13.842Z,1.70
2022-08-10T14:18:44.982Z,1.60
2022-08-10T14:21:14.491Z,1.50
2022-08-10T14:23:48.588Z,1.30
2022-08-10T14:26:28.866Z,1.50
2022-08-10T14:29:02.814Z,1.40
2022-08-10T14:31:34.589Z,1.40
2022-08-10T14:34:05.718Z,1.10
2022-08-10T14:36:56.630Z,1.20
2022-08-10T14:39:41.473Z,1.40
2022-08-10T14:42:26.901Z,1.40
2022-08-10T14:45:02.047Z,1.60
2022-08-10T14:48:03.297Z,1.40
2022-08-10T14:50:31.718Z,1.40
2022-08-10T14:53:26.559Z,1.30
2022-08-10T14:56:00.984Z,1.20
2022-08-10T14:59:05.520Z,1.20
2022-08-10T15:02:00.159Z,1.20
2022-08-10T15:04:28.591Z,1.30
2022-08-10T15:07:20.852Z,1.40
2022-08-10T15:10:00.848Z,1.50
2022-08-10T15:12:34.641Z,1.30
2022-08-10T15:15:05.564Z,1.40
2022-08-10T15:17:37.482Z,1.60
2022-08-10T15:20:30.916Z,1.40
2022-08-10T15:23:30.808Z,1.40
2022-08-10T15:26:11.181Z,1.80
2022-08-10T15:29:23.389Z,1.80
2022-08-10T15:31:34.970Z,2.10
2022-08-10T15:34:23.124Z,1.70
2022-08-10T15:37:40.460Z,2.00
2022-08-10T15:40:24.695Z,1.80
2022-08-10T15:45:34.970Z,1.90
2022-08-10T15:48:06.405Z,2.00
2022-08-10T15:50:40.931Z,1.90
2022-08-10T15:53:49.926Z,2.00
2022-08-10T15:56:28.448Z,2.90
2022-08-10T15:59:09.345Z,2.00
2022-08-10T16:02:13.112Z,1.90
2022-08-10T16:04:43.277Z,2.40
2022-08-10T16:07:20.695Z,2.10
2022-08-10T16:13:50.952Z,2.30
2022-08-10T16:16:01.083Z,3.60
2022-08-10T16:18:31.799Z,1.80
2022-08-10T16:21:02.469Z,1.90
2022-08-10T16:23:35.365Z,1.80
2022-08-10T16:26:14.667Z,2.00
2022-08-10T16:29:01.752Z,1.70
2022-08-10T16:31:33.204Z,2.10
2022-08-10T16:34:06.633Z,2.50
2022-08-10T16:36:43.281Z,2.50
2022-08-10T16:39:58.806Z,3.00
2022-08-10T16:42:14.942Z,2.40
2022-08-10T16:45:02.675Z,2.20
2022-08-10T16:47:33.925Z,2.10
2022-08-10T16:50:05.878Z,2.00
2022-08-10T16:52:35.414Z,2.10
2022-08-10T16:55:27.085Z,2.10
2022-08-10T16:58:08.183Z,2.20
2022-08-10T17:00:38.781Z,1.80
2022-08-10T17:03:22.233Z,2.10
2022-08-10T17:06:07.386Z,2.10
2022-08-10T17:08:48.021Z,2.30
2022-08-10T17:11:19.321Z,2.50
2022-08-10T17:13:48.219Z,2.20
2022-08-10T17:16:17.824Z,2.00
2022-08-10T17:18:48.269Z,2.30
2022-08-10T17:21:28.706Z,2.10
2022-08-10T17:24:00.603Z,2.10
2022-08-10T17:26:37.230Z,2.00
2022-08-10T17:29:53.292Z,1.90
2022-08-10T17:32:11.676Z,2.30
2022-08-10T17:34:46.894Z,2.20
2022-08-10T17:37:20.929Z,2.00
2022-08-10T17:39:55.001Z,2.60
2022-08-10T17:42:24.543Z,2.10
2022-08-10T17:44:55.073Z,2.60
2022-08-10T17:47:27.220Z,2.20
2022-08-10T17:49:58.046Z,2.40
2022-08-10T17:52:30.639Z,2.20
2022-08-10T17:55:05.389Z,2.30
2022-08-10T17:57:39.475Z,2.20
2022-08-10T18:00:14.727Z,2.60
2022-08-10T18:02:46.864Z,2.70
2022-08-10T18:05:15.994Z,2.70
2022-08-10T18:07:50.688Z,3.70
2022-08-10T18:10:21.853Z,4.40
2022-08-10T18:12:54.339Z,4.50
2022-08-10T18:15:27.825Z,6.20
2022-08-10T18:18:00.990Z,5.90
2022-08-10T18:20:37.688Z,5.10
2022-08-10T18:23:08.243Z,4.50
2022-08-10T18:25:39.635Z,4.10
2022-08-10T18:28:20.151Z,4.20
2022-08-10T18:30:52.197Z,4.10
2022-08-10T18:33:29.478Z,4.00
2022-08-10T18:36:03.123Z,4.00
2022-08-10T18:38:34.330Z,3.40
2022-08-10T18:41:09.269Z,3.60
2022-08-10T18:44:06.338Z,3.50
2022-08-10T18:47:05.942Z,4.70
2022-08-10T18:49:50.061Z,4.50
2022-08-10T18:52:23.025Z,3.70
2022-08-10T18:54:55.111Z,4.10
2022-08-10T18:57:28.848Z,3.80
2022-08-10T19:00:03.489Z,3.90
2022-08-10T19:02:35.704Z,4.60
2022-08-10T19:05:32.328Z,5.30
2022-08-10T19:08:30.502Z,5.30
2022-08-10T19:11:19.071Z,5.00
2022-08-10T19:13:48.799Z,4.60
2022-08-10T19:16:56.009Z,4.20
2022-08-10T19:19:35.294Z,4.80
2022-08-10T19:22:15.252Z,5.20
2022-08-10T19:25:08.311Z,4.90
2022-08-10T19:27:59.506Z,6.40
2022-08-10T19:30:52.269Z,7.50
2022-08-10T19:33:35.400Z,7.30
2022-08-10T19:36:19.481Z,6.90
2022-08-10T19:39:12.393Z,6.30
2022-08-10T19:41:56.240Z,6.60
2022-08-10T19:44:48.547Z,6.80
2022-08-10T19:47:29.117Z,7.00
2022-08-10T19:50:37.656Z,6.30
2022-08-10T19:53:22.801Z,5.30
2022-08-10T19:56:34.268Z,5.50
2022-08-10T20:00:15.706Z,5.40
2022-08-10T20:02:51.861Z,5.00
2022-08-10T20:05:33.355Z,5.20
2022-08-10T20:08:01.209Z,4.80
2022-08-10T20:10:47.200Z,5.20
2022-08-10T20:13:26.227Z,5.20
2022-08-10T20:16:01.561Z,5.00
2022-08-10T20:18:46.769Z,5.10
2022-08-10T20:21:40.132Z,5.00
2022-08-10T20:24:13.295Z,5.30
2022-08-10T20:27:44.239Z,4.50
2022-08-10T20:30:13.141Z,4.30
2022-08-10T20:32:55.037Z,4.80
2022-08-10T20:35:30.784Z,4.90
2022-08-10T20:38:09.654Z,4.70
2022-08-10T20:40:55.476Z,5.00
2022-08-10T20:43:41.883Z,4.40
2022-08-10T20:46:18.687Z,5.60
2022-08-10T20:48:55.532Z,6.80
2022-08-10T20:51:58.811Z,6.80
2022-08-10T20:54:20.244Z,6.80
2022-08-10T20:58:04.052Z,7.10
2022-08-10T21:00:12.988Z,7.60
2022-08-10T21:02:52.960Z,7.40
2022-08-10T21:05:34.344Z,8.00
2022-08-10T21:08:14.598Z,7.20
2022-08-10T21:11:10.628Z,6.90
2022-08-10T21:14:07.698Z,7.10
2022-08-10T21:17:13.121Z,7.50
2022-08-10T21:20:12.137Z,8.10
2022-08-10T21:22:46.425Z,7.70
2022-08-10T21:25:29.495Z,7.90
2022-08-10T21:28:28.831Z,7.90
2022-08-10T21:31:35.735Z,7.90
2022-08-10T21:34:35.590Z,7.70
2022-08-10T21:37:20.571Z,7.40
2022-08-10T21:40:32.120Z,7.70
2022-08-10T21:43:44.108Z,6.70
2022-08-10T21:46:59.043Z,6.00
2022-08-10T21:50:11.386Z,6.40
2022-08-10T21:53:08.958Z,6.30
2022-08-10T21:56:16.962Z,5.30
2022-08-10T21:59:56.026Z,6.50
2022-08-10T22:02:50.265Z,6.00
2022-08-10T22:05:46.553Z,6.10
2022-08-10T22:08:41.211Z,7.30
2022-08-10T22:11:37.807Z,5.80
2022-08-10T22:14:27.145Z,6.40
2022-08-10T22:18:00.727Z,5.90
2022-08-10T22:20:42.216Z,5.90
2022-08-10T22:23:40.527Z,6.00
2022-08-10T22:26:35.879Z,5.50
2022-08-10T22:29:42.591Z,6.20
2022-08-10T22:33:08.630Z,5.40
2022-08-10T22:35:57.854Z,6.30
2022-08-10T22:38:47.020Z,6.40
2022-08-10T22:41:51.475Z,6.00
2022-08-10T22:44:40.679Z,6.10
2022-08-10T22:47:31.266Z,5.80
2022-08-10T22:50:03.471Z,5.60
2022-08-10T22:53:02.015Z,5.60
2022-08-10T22:55:57.723Z,5.20
2022-08-10T22:58:40.966Z,5.40
2022-08-10T23:01:39.330Z,5.10
2022-08-10T23:04:16.739Z,5.70
2022-08-10T23:06:59.495Z,6.00
2022-08-10T23:09:29.352Z,5.70
2022-08-10T23:12:00.699Z,5.50
2022-08-10T23:14:38.142Z,5.70
2022-08-10T23:18:00.452Z,5.60
2022-08-10T23:20:22.963Z,6.00
2022-08-10T23:23:03.624Z,5.60
2022-08-10T23:25:43.730Z,5.40
2022-08-10T23:28:57.352Z,5.50
2022-08-10T23:31:17.593Z,5.20
2022-08-10T23:34:07.833Z,5.30
2022-08-10T23:36:39.303Z,5.00
2022-08-10T23:39:25.516Z,5.60
2022-08-10T23:42:04.559Z,5.30
2022-08-10T23:44:38.153Z,5.20
2022-08-10T23:47:08.071Z,5.20
2022-08-10T23:49:37.542Z,5.10
2022-08-10T23:52:16.078Z,5.10
2022-08-10T23:54:48.776Z,4.60
2022-08-10T23:57:19.438Z,5.30
